Time;durP1;ratioP1;P1;durP2;ratioP2;P2;SDS_P1;SDS_P2;PMS_P1;PMS_P2;Temp;Humidity;BMP_temperature;BMP_pressure;BME280_temperature;BME280_humidity;BME280_pressure;Samples;Min_cycle;Max_cycle;Signal;HPM_P1;HPM_P2
2022/09/09 00:00:53;;;;;;;1.67;0.63;;;15.00;99.90;;;;;;5113213;28;20231;-43
2022/09/09 00:03:25;;;;;;;0.43;0.43;;;15.00;99.90;;;;;;5113493;28;20174;-42
2022/09/09 00:06:29;;;;;;;1.70;0.50;;;15.00;99.90;;;;;;5115382;28;20190;-40
2022/09/09 00:09:10;;;;;;;2.13;0.53;;;15.00;99.90;;;;;;5115126;28;20223;-43
2022/09/09 00:11:57;;;;;;;2.30;0.67;;;14.90;99.90;;;;;;5119819;28;20238;-43
2022/09/09 00:14:41;;;;;;;2.40;0.70;;;14.90;99.90;;;;;;5119539;28;20221;-42
2022/09/09 00:17:17;;;;;;;1.53;0.90;;;14.90;99.90;;;;;;5119670;28;20663;-42
2022/09/09 00:19:52;;;;;;;1.57;0.63;;;14.80;99.90;;;;;;5119328;28;20509;-42
2022/09/09 00:22:23;;;;;;;1.93;0.70;;;14.80;99.90;;;;;;5117449;28;20157;-42
2022/09/09 00:24:56;;;;;;;4.10;0.67;;;14.80;99.90;;;;;;5098535;28;20719;-42
2022/09/09 00:27:44;;;;;;;0.97;0.70;;;14.70;99.90;;;;;;5115490;28;20162;-41
2022/09/09 00:30:24;;;;;;;1.27;0.60;;;14.70;99.90;;;;;;5116925;28;20197;-42
2022/09/09 00:32:54;;;;;;;2.00;0.60;;;14.70;99.90;;;;;;5117036;27;20162;-43
2022/09/09 00:35:31;;;;;;;3.27;0.87;;;14.70;99.90;;;;;;5115686;28;20202;-40
2022/09/09 00:38:02;;;;;;;1.80;0.70;;;14.60;99.90;;;;;;5116925;28;20165;-43
2022/09/09 00:40:39;;;;;;;1.50;0.70;;;14.60;99.90;;;;;;5115286;28;20163;-43
2022/09/09 00:43:30;;;;;;;1.43;0.60;;;14.60;99.90;;;;;;5117032;28;20186;-43
2022/09/09 00:46:23;;;;;;;1.87;0.80;;;14.50;99.90;;;;;;5116552;27;20190;-42
2022/09/09 00:49:20;;;;;;;1.57;0.50;;;14.50;99.90;;;;;;5115215;28;20261;-43
2022/09/09 00:52:04;;;;;;;1.43;0.60;;;14.50;99.90;;;;;;5115031;28;20178;-43
2022/09/09 00:55:04;;;;;;;2.43;0.60;;;14.40;99.90;;;;;;5116699;28;20536;-40
2022/09/09 00:57:32;;;;;;;2.03;0.63;;;14.40;99.90;;;;;;5116409;28;20213;-42
2022/09/09 01:00:06;;;;;;;5.40;1.00;;;14.30;99.90;;;;;;5116193;28;20224;-40
2022/09/09 01:02:51;;;;;;;1.83;0.53;;;14.30;99.90;;;;;;5116393;28;20223;-43
2022/09/09 01:05:44;;;;;;;1.80;0.50;;;14.30;99.90;;;;;;5116014;28;20185;-42
2022/09/09 01:08:34;;;;;;;1.03;0.83;;;14.30;99.90;;;;;;5116011;28;20150;-43
2022/09/09 01:11:02;;;;;;;3.00;0.60;;;14.20;99.90;;;;;;5104630;28;20186;-42
2022/09/09 01:13:30;;;;;;;2.27;0.60;;;14.20;99.90;;;;;;5116119;28;20177;-42
2022/09/09 01:16:05;;;;;;;2.10;0.50;;;14.20;99.90;;;;;;5115740;28;20641;-42
2022/09/09 01:18:45;;;;;;;1.07;0.73;;;14.20;99.90;;;;;;5115851;28;20161;-42
2022/09/09 01:21:31;;;;;;;2.73;0.73;;;14.10;99.90;;;;;;5115165;28;20527;-41
2022/09/09 01:24:26;;;;;;;1.67;0.77;;;14.10;99.90;;;;;;5115901;28;20166;-42
2022/09/09 01:26:58;;;;;;;1.80;0.63;;;14.10;99.90;;;;;;5115739;28;20181;-43
2022/09/09 01:29:24;;;;;;;1.90;0.60;;;14.10;99.90;;;;;;5115700;27;20532;-43
2022/09/09 01:32:00;;;;;;;2.00;0.70;;;14.10;99.90;;;;;;5115884;28;20548;-41
2022/09/09 01:34:30;;;;;;;2.70;0.80;;;14.10;99.90;;;;;;5115764;27;20206;-41
2022/09/09 01:36:59;;;;;;;1.50;0.40;;;14.10;99.90;;;;;;5114918;28;20785;-40
2022/09/09 01:39:25;;;;;;;1.43;0.60;;;14.10;99.90;;;;;;5115610;28;20236;-43
2022/09/09 01:41:52;;;;;;;2.20;0.50;;;14.10;99.90;;;;;;5115460;28;20487;-41
2022/09/09 01:44:19;;;;;;;2.10;0.77;;;14.10;99.90;;;;;;5114195;28;20174;-43
2022/09/09 01:46:44;;;;;;;3.10;0.90;;;14.10;99.90;;;;;;5114329;28;20186;-41
2022/09/09 01:49:11;;;;;;;2.47;0.87;;;14.10;99.90;;;;;;5115232;28;20189;-41
2022/09/09 01:51:40;;;;;;;2.87;0.83;;;14.20;99.90;;;;;;5115281;28;20178;-43
2022/09/09 01:54:07;;;;;;;1.50;0.60;;;14.20;99.90;;;;;;5115156;28;20177;-41
2022/09/09 01:56:40;;;;;;;1.93;0.70;;;14.20;99.90;;;;;;5115246;28;20220;-42
2022/09/09 01:59:36;;;;;;;4.73;0.90;;;14.30;99.90;;;;;;5115217;28;20251;-43
2022/09/09 02:02:37;;;;;;;1.30;0.60;;;14.30;99.90;;;;;;5115348;28;20157;-43
2022/09/09 02:05:21;;;;;;;2.53;0.90;;;14.30;99.90;;;;;;5114977;28;20597;-42
2022/09/09 02:07:53;;;;;;;2.23;0.70;;;14.30;99.90;;;;;;5115161;28;20614;-44
2022/09/09 02:10:32;;;;;;;9.57;0.80;;;14.30;99.90;;;;;;5115233;28;20527;-41
2022/09/09 02:13:08;;;;;;;5.23;1.27;;;14.30;99.90;;;;;;5113939;28;20156;-41
2022/09/09 02:16:00;;;;;;;1.67;0.80;;;14.30;99.90;;;;;;5114576;28;20197;-43
2022/09/09 02:18:41;;;;;;;3.27;0.80;;;14.30;99.90;;;;;;5114985;28;20146;-42
2022/09/09 02:21:11;;;;;;;4.07;0.83;;;14.40;99.90;;;;;;5113592;28;20636;-42
2022/09/09 02:23:39;;;;;;;2.63;0.90;;;14.40;99.90;;;;;;5114624;28;20169;-42
2022/09/09 02:26:07;;;;;;;3.03;1.10;;;14.50;99.90;;;;;;5114346;28;20211;-44
2022/09/09 02:28:34;;;;;;;2.83;0.77;;;14.50;99.90;;;;;;5114411;28;20299;-41
2022/09/09 02:31:01;;;;;;;1.83;0.90;;;14.50;99.90;;;;;;5114410;28;20197;-42
2022/09/09 02:33:34;;;;;;;5.07;0.97;;;14.50;99.90;;;;;;5112169;28;20197;-41
2022/09/09 02:36:03;;;;;;;5.43;1.30;;;14.50;99.90;;;;;;5114227;28;20284;-43
2022/09/09 02:38:32;;;;;;;5.47;0.90;;;14.50;99.90;;;;;;5114528;28;20678;-43
2022/09/09 02:40:58;;;;;;;4.87;1.17;;;14.60;99.90;;;;;;5114720;28;20167;-43
2022/09/09 02:43:24;;;;;;;7.07;1.00;;;14.60;99.90;;;;;;5114309;28;20171;-45
2022/09/09 02:46:28;;;;;;;6.87;1.10;;;14.60;99.90;;;;;;5114175;28;20199;-43
2022/09/09 02:49:06;;;;;;;6.57;1.00;;;14.70;99.90;;;;;;5112946;28;20248;-43
2022/09/09 02:51:48;;;;;;;6.90;0.90;;;14.70;99.90;;;;;;5114476;28;20247;-43
2022/09/09 02:54:26;;;;;;;2.17;0.97;;;14.70;99.90;;;;;;5114584;28;20252;-45
2022/09/09 02:56:56;;;;;;;5.53;1.00;;;14.70;99.90;;;;;;5113925;28;20665;-46
2022/09/09 02:59:24;;;;;;;4.43;0.90;;;14.70;99.90;;;;;;5114058;28;20205;-45
2022/09/09 03:01:50;;;;;;;5.50;0.83;;;14.70;99.90;;;;;;5114139;28;20490;-43
2022/09/09 03:04:16;;;;;;;2.93;1.10;;;14.70;99.90;;;;;;5112803;28;20174;-42
2022/09/09 03:06:43;;;;;;;5.40;1.20;;;14.70;99.90;;;;;;5114463;28;20175;-44
2022/09/09 03:09:10;;;;;;;3.00;1.03;;;14.70;99.90;;;;;;5114450;28;20640;-44
2022/09/09 03:11:36;;;;;;;5.07;1.20;;;14.70;99.90;;;;;;5113972;28;20171;-44
2022/09/09 03:14:02;;;;;;;1.83;1.00;;;14.70;99.90;;;;;;5114350;28;20204;-44
2022/09/09 03:16:27;;;;;;;3.53;1.20;;;14.70;99.90;;;;;;5114080;28;20258;-38
2022/09/09 03:18:53;;;;;;;4.83;0.97;;;14.70;99.90;;;;;;5114035;28;20707;-42
2022/09/09 03:21:19;;;;;;;8.03;1.30;;;14.70;99.90;;;;;;5113728;28;20178;-43
2022/09/09 03:23:44;;;;;;;3.67;1.03;;;14.70;99.90;;;;;;5113790;28;20170;-41
2022/09/09 03:26:10;;;;;;;5.23;1.33;;;14.80;99.90;;;;;;5113558;28;20210;-43
2022/09/09 03:28:36;;;;;;;4.33;1.30;;;14.80;99.90;;;;;;5113967;28;20178;-41
2022/09/09 03:31:04;;;;;;;3.67;0.90;;;14.80;99.90;;;;;;5114159;28;20626;-38
2022/09/09 03:33:29;;;;;;;3.10;1.00;;;14.80;99.90;;;;;;5112355;28;20209;-38
2022/09/09 03:35:56;;;;;;;3.63;1.27;;;14.90;99.90;;;;;;5112035;28;20728;-41
2022/09/09 03:38:23;;;;;;;5.47;1.30;;;14.90;99.90;;;;;;5113713;28;20181;-40
2022/09/09 03:40:55;;;;;;;3.30;1.10;;;14.90;99.90;;;;;;5113516;28;20171;-40
2022/09/09 03:43:25;;;;;;;5.53;1.10;;;14.90;99.90;;;;;;5113534;28;20186;-38
2022/09/09 03:45:51;;;;;;;5.37;1.20;;;14.90;99.90;;;;;;5117468;28;20652;-37
2022/09/09 03:48:18;;;;;;;3.07;1.17;;;14.90;99.90;;;;;;5117742;28;20178;-39
2022/09/09 03:50:48;;;;;;;7.80;1.03;;;15.00;99.90;;;;;;5117784;28;20554;-37
2022/09/09 03:53:15;;;;;;;3.80;1.23;;;15.00;99.90;;;;;;5117731;28;20515;-38
2022/09/09 03:55:47;;;;;;;4.63;1.00;;;15.00;99.90;;;;;;5116073;28;20229;-38
2022/09/09 03:58:14;;;;;;;3.73;1.50;;;15.00;99.90;;;;;;5117430;28;20162;-39
2022/09/09 04:00:42;;;;;;;4.20;1.30;;;15.00;99.90;;;;;;5117898;28;20175;-40
2022/09/09 04:03:11;;;;;;;2.13;0.93;;;15.00;99.90;;;;;;5117604;28;20166;-39
2022/09/09 04:05:39;;;;;;;3.87;1.07;;;15.00;99.90;;;;;;5117352;28;20190;-40
2022/09/09 04:08:08;;;;;;;2.67;1.20;;;15.00;99.90;;;;;;5117258;28;20188;-39
2022/09/09 04:10:37;;;;;;;1.83;0.83;;;15.10;99.90;;;;;;5117378;28;20193;-38
2022/09/09 04:13:04;;;;;;;6.93;1.07;;;15.10;99.90;;;;;;5115826;28;20183;-38
2022/09/09 04:15:31;;;;;;;7.77;1.47;;;15.10;99.90;;;;;;5116972;28;20194;-38
2022/09/09 04:17:56;;;;;;;4.73;1.03;;;15.20;99.90;;;;;;5117318;28;20235;-39
2022/09/09 04:20:22;;;;;;;4.30;1.20;;;15.20;99.90;;;;;;5115800;28;20194;-38
2022/09/09 04:22:48;;;;;;;6.03;1.10;;;15.20;99.90;;;;;;5117235;28;20178;-39
2022/09/09 04:25:14;;;;;;;5.07;1.13;;;15.20;99.90;;;;;;5116926;28;20210;-41
2022/09/09 04:27:39;;;;;;;7.67;1.07;;;15.20;99.90;;;;;;5117109;28;20182;-38
2022/09/09 04:30:07;;;;;;;6.53;1.63;;;15.20;99.90;;;;;;5116740;28;20246;-38
2022/09/09 04:32:33;;;;;;;8.20;1.27;;;15.30;99.90;;;;;;5116986;27;20211;-37
2022/09/09 04:34:59;;;;;;;5.07;1.30;;;15.30;99.90;;;;;;5116889;28;20190;-38
2022/09/09 04:37:24;;;;;;;4.60;1.20;;;15.30;99.90;;;;;;5116911;28;20204;-38
2022/09/09 04:39:50;;;;;;;3.87;1.07;;;15.30;99.90;;;;;;5116564;28;20682;-37
2022/09/09 04:42:17;;;;;;;6.60;1.20;;;15.30;99.90;;;;;;5116850;28;20544;-38
2022/09/09 04:44:43;;;;;;;9.57;1.30;;;15.30;99.90;;;;;;5116487;28;20190;-38
2022/09/09 04:47:09;;;;;;;5.10;1.00;;;15.30;99.90;;;;;;5116960;28;20304;-38
2022/09/09 04:49:36;;;;;;;5.33;1.40;;;15.30;99.90;;;;;;5116418;28;20273;-38
2022/09/09 04:52:03;;;;;;;2.27;0.87;;;15.30;99.90;;;;;;5116639;28;20178;-38
2022/09/09 04:54:28;;;;;;;4.30;1.00;;;15.30;99.90;;;;;;5116327;28;20181;-38
2022/09/09 04:56:54;;;;;;;6.13;1.60;;;15.30;99.90;;;;;;5115331;28;20212;-40
2022/09/09 04:59:21;;;;;;;4.17;1.30;;;15.30;99.90;;;;;;5114892;28;20180;-37
2022/09/09 05:01:47;;;;;;;4.27;1.10;;;15.30;99.90;;;;;;5117014;28;20620;-43
2022/09/09 05:04:15;;;;;;;6.47;1.70;;;15.30;99.90;;;;;;5116240;28;20638;-40
2022/09/09 05:06:42;;;;;;;6.40;1.63;;;15.30;99.90;;;;;;5116094;28;20182;-39
2022/09/09 05:09:08;;;;;;;3.13;1.13;;;15.30;99.90;;;;;;5116226;28;20668;-41
2022/09/09 05:11:38;;;;;;;6.77;1.37;;;15.30;99.90;;;;;;5116324;28;20172;-39
2022/09/09 05:14:04;;;;;;;4.97;1.20;;;15.30;99.90;;;;;;5115917;28;20170;-42
2022/09/09 05:16:30;;;;;;;3.50;1.10;;;15.30;99.90;;;;;;5115915;28;20205;-39
2022/09/09 05:18:56;;;;;;;6.43;1.47;;;15.30;99.90;;;;;;5115755;28;20181;-40
2022/09/09 05:21:24;;;;;;;4.10;1.43;;;15.30;99.90;;;;;;5115710;28;20261;-38
2022/09/09 05:23:53;;;;;;;5.30;1.57;;;15.30;99.90;;;;;;5115745;28;20180;-39
2022/09/09 05:26:21;;;;;;;6.23;1.50;;;15.30;99.90;;;;;;5115675;28;20242;-38
2022/09/09 05:28:47;;;;;;;5.93;1.30;;;15.20;99.90;;;;;;5116198;28;20185;-40
2022/09/09 05:31:15;;;;;;;5.97;1.70;;;15.30;99.90;;;;;;5114251;28;20186;-37
2022/09/09 05:33:43;;;;;;;4.53;1.20;;;15.30;99.90;;;;;;5115646;28;20188;-40
2022/09/09 05:36:13;;;;;;;7.37;1.30;;;15.30;99.90;;;;;;5114254;28;20218;-37
2022/09/09 05:38:40;;;;;;;2.47;1.03;;;15.30;99.90;;;;;;5114391;28;20174;-38
2022/09/09 05:41:06;;;;;;;4.83;1.10;;;15.20;99.90;;;;;;5115779;28;20178;-39
2022/09/09 05:43:35;;;;;;;3.30;1.33;;;15.30;99.90;;;;;;5114376;28;20267;-39
2022/09/09 05:46:12;;;;;;;5.83;1.83;;;15.30;99.90;;;;;;5115594;28;20194;-37
2022/09/09 05:48:40;;;;;;;5.40;1.50;;;15.30;99.90;;;;;;5116090;28;20202;-38
2022/09/09 05:51:15;;;;;;;5.60;1.23;;;15.30;99.90;;;;;;5116546;28;20261;-37
2022/09/09 05:53:42;;;;;;;9.30;1.30;;;15.30;99.90;;;;;;5115774;28;20150;-39
2022/09/09 05:56:10;;;;;;;8.53;1.20;;;15.30;99.90;;;;;;5115413;27;20294;-40
2022/09/09 05:58:36;;;;;;;4.97;1.47;;;15.40;99.90;;;;;;5115687;28;20535;-39
2022/09/09 06:01:07;;;;;;;5.80;1.20;;;15.40;99.90;;;;;;5115614;28;20176;-37
2022/09/09 06:03:35;;;;;;;2.63;1.00;;;15.40;99.90;;;;;;5115934;28;20158;-37
2022/09/09 06:06:05;;;;;;;2.40;1.10;;;15.40;99.90;;;;;;5115279;28;20197;-38
2022/09/09 06:08:31;;;;;;;6.37;1.30;;;15.40;99.90;;;;;;5115553;28;20166;-38
2022/09/09 06:11:05;;;;;;;6.77;1.30;;;15.40;99.90;;;;;;5115839;28;20638;-38
2022/09/09 06:13:31;;;;;;;4.27;1.00;;;15.40;99.90;;;;;;5114078;28;20170;-40
2022/09/09 06:15:58;;;;;;;7.50;1.50;;;15.40;99.90;;;;;;5114862;28;20280;-38
2022/09/09 06:18:24;;;;;;;3.00;1.00;;;15.40;99.90;;;;;;5115221;28;20224;-40
2022/09/09 06:20:58;;;;;;;6.83;1.97;;;15.50;99.90;;;;;;5115049;28;20489;-41
2022/09/09 06:23:25;;;;;;;4.53;1.20;;;15.50;99.90;;;;;;5114804;28;20177;-42
2022/09/09 06:25:51;;;;;;;2.83;1.10;;;15.60;99.90;;;;;;5114972;28;20205;-41
2022/09/09 06:28:17;;;;;;;4.73;1.37;;;15.70;99.90;;;;;;5114908;28;20308;-39
2022/09/09 06:30:44;;;;;;;3.83;1.40;;;15.70;99.90;;;;;;5115714;28;20179;-39
2022/09/09 06:33:10;;;;;;;7.23;1.10;;;15.80;99.90;;;;;;5115319;27;20166;-38
2022/09/09 06:35:35;;;;;;;5.43;1.13;;;15.90;99.90;;;;;;5114376;28;20186;-38
2022/09/09 06:38:01;;;;;;;4.83;1.27;;;15.90;99.90;;;;;;5114673;28;20169;-38
2022/09/09 06:40:27;;;;;;;3.33;1.40;;;15.90;99.90;;;;;;5114999;28;20257;-39
2022/09/09 06:42:52;;;;;;;5.47;0.80;;;15.90;99.90;;;;;;5114545;28;20177;-39
2022/09/09 06:45:18;;;;;;;5.30;0.90;;;15.90;99.90;;;;;;5114549;28;20197;-37
2022/09/09 06:47:44;;;;;;;7.10;1.27;;;15.90;99.90;;;;;;5114995;28;20189;-38
2022/09/09 06:50:10;;;;;;;3.73;1.03;;;15.90;99.90;;;;;;5114454;28;20230;-40
2022/09/09 06:52:37;;;;;;;6.20;1.00;;;15.90;99.90;;;;;;5112895;28;20189;-38
2022/09/09 06:55:03;;;;;;;6.67;1.50;;;15.90;99.90;;;;;;5112954;28;20612;-39
2022/09/09 06:57:29;;;;;;;4.07;1.20;;;16.00;99.90;;;;;;5114232;27;20296;-38
2022/09/09 06:59:54;;;;;;;6.23;1.30;;;16.10;99.90;;;;;;5114078;28;20205;-38
2022/09/09 07:02:21;;;;;;;3.87;1.10;;;16.10;99.90;;;;;;5114456;28;20175;-38
2022/09/09 07:04:46;;;;;;;4.73;1.13;;;16.20;99.90;;;;;;5113969;28;20559;-37
2022/09/09 07:07:13;;;;;;;9.87;1.33;;;16.30;99.90;;;;;;5114339;28;20189;-39
2022/09/09 07:09:39;;;;;;;6.37;1.33;;;16.40;99.90;;;;;;5114340;28;20190;-40
2022/09/09 07:12:06;;;;;;;2.17;1.00;;;16.50;99.90;;;;;;5113949;28;20523;-38
2022/09/09 07:14:32;;;;;;;5.10;1.57;;;16.70;99.90;;;;;;5114171;28;20238;-38
2022/09/09 07:16:58;;;;;;;5.47;1.20;;;16.80;99.90;;;;;;5113916;28;20198;-36
2022/09/09 07:19:24;;;;;;;5.60;1.53;;;17.00;99.90;;;;;;5113487;28;20180;-38
2022/09/09 07:21:50;;;;;;;4.83;1.00;;;17.20;99.90;;;;;;5113975;28;20170;-39
2022/09/09 07:24:15;;;;;;;4.63;1.30;;;17.30;99.90;;;;;;5113809;28;20654;-39
2022/09/09 07:26:41;;;;;;;4.13;1.33;;;17.40;99.90;;;;;;5114108;28;20237;-38
2022/09/09 07:29:08;;;;;;;6.33;1.27;;;17.60;99.90;;;;;;5112700;28;20581;-40
2022/09/09 07:31:37;;;;;;;6.60;1.47;;;17.80;99.90;;;;;;5113952;28;20662;-42
2022/09/09 07:34:04;;;;;;;4.97;1.43;;;17.90;99.90;;;;;;5113789;28;20223;-42
2022/09/09 07:36:35;;;;;;;8.93;1.40;;;17.90;99.90;;;;;;5113550;28;20687;-41
2022/09/09 07:39:04;;;;;;;4.93;1.30;;;17.90;99.90;;;;;;5113546;28;20155;-43
2022/09/09 07:41:39;;;;;;;5.80;1.67;;;17.90;99.90;;;;;;5112256;28;20170;-42
2022/09/09 07:44:11;;;;;;;6.70;1.97;;;18.00;99.90;;;;;;5112358;28;20541;-42
2022/09/09 07:46:39;;;;;;;3.97;0.97;;;18.00;99.90;;;;;;5113962;28;20213;-42
2022/09/09 07:49:05;;;;;;;6.93;1.23;;;18.10;99.90;;;;;;5113799;28;20175;-42
2022/09/09 07:51:36;;;;;;;4.90;1.50;;;18.30;99.90;;;;;;5113721;28;20178;-42
2022/09/09 07:54:04;;;;;;;4.07;1.03;;;18.30;99.90;;;;;;5113782;28;20182;-42
2022/09/09 07:56:31;;;;;;;5.63;1.23;;;18.40;99.90;;;;;;5112087;28;20205;-42
2022/09/09 07:58:58;;;;;;;7.57;1.20;;;18.40;99.90;;;;;;5114017;28;20237;-43
2022/09/09 08:01:30;;;;;;;4.00;1.20;;;18.50;99.90;;;;;;5113810;28;20254;-41
2022/09/09 08:04:01;;;;;;;8.20;1.00;;;18.60;99.90;;;;;;5113608;28;20665;-40
2022/09/09 08:06:29;;;;;;;4.47;1.00;;;18.70;99.90;;;;;;5113161;28;20209;-41
2022/09/09 08:08:55;;;;;;;6.33;1.23;;;18.80;99.90;;;;;;5113830;28;20182;-41
2022/09/09 08:11:22;;;;;;;5.43;1.43;;;18.80;99.90;;;;;;5113729;28;20216;-42
2022/09/09 08:13:50;;;;;;;5.20;1.37;;;18.90;99.90;;;;;;5113418;28;20636;-41
2022/09/09 08:16:21;;;;;;;2.80;1.07;;;18.90;99.90;;;;;;5113643;28;20202;-42
2022/09/09 08:18:49;;;;;;;5.67;1.03;;;18.90;99.90;;;;;;5114356;28;20482;-42
2022/09/09 08:21:18;;;;;;;7.77;1.80;;;18.90;99.90;;;;;;5113359;28;20205;-40
2022/09/09 08:23:46;;;;;;;7.20;1.63;;;18.80;99.90;;;;;;5113978;28;20209;-41
2022/09/09 08:26:22;;;;;;;4.47;1.27;;;18.70;99.90;;;;;;5113071;28;20217;-42
2022/09/09 08:28:51;;;;;;;5.07;1.43;;;18.70;99.90;;;;;;5113250;28;20223;-43
2022/09/09 08:31:35;;;;;;;3.00;1.20;;;18.70;99.90;;;;;;5116098;28;20655;-43
2022/09/09 08:34:03;;;;;;;4.93;1.40;;;18.70;99.90;;;;;;5117209;28;20219;-44
2022/09/09 08:36:30;;;;;;;2.50;0.87;;;18.70;99.90;;;;;;5115432;28;20210;-42
2022/09/09 08:38:57;;;;;;;3.37;0.97;;;18.70;99.90;;;;;;5117108;28;20494;-44
2022/09/09 08:41:58;;;;;;;6.70;1.43;;;18.70;99.90;;;;;;5117093;27;20182;-42
2022/09/09 08:44:30;;;;;;;4.60;1.20;;;18.70;99.90;;;;;;5116918;28;20146;-42
2022/09/09 08:47:11;;;;;;;4.47;1.10;;;18.70;99.90;;;;;;5117373;27;20174;-42
2022/09/09 08:50:01;;;;;;;4.87;1.27;;;18.70;99.90;;;;;;5115330;28;20586;-40
2022/09/09 08:52:41;;;;;;;6.00;1.13;;;18.70;99.90;;;;;;5117015;28;20194;-40
2022/09/09 08:55:22;;;;;;;3.70;0.97;;;18.90;99.90;;;;;;5115518;28;20198;-37
2022/09/09 08:57:54;;;;;;;11.00;1.57;;;19.00;99.90;;;;;;5116797;28;20597;-39
2022/09/09 09:00:20;;;;;;;3.30;0.90;;;19.10;99.90;;;;;;5116649;28;20158;-39
2022/09/09 09:03:05;;;;;;;3.30;1.20;;;19.20;99.90;;;;;;5116581;28;20174;-39
2022/09/09 09:05:41;;;;;;;4.93;1.30;;;19.20;99.90;;;;;;5116891;28;20186;-40
2022/09/09 09:08:19;;;;;;;5.73;1.13;;;19.30;99.90;;;;;;5117284;28;20166;-39
2022/09/09 09:10:51;;;;;;;4.90;1.07;;;19.30;99.90;;;;;;5117517;28;20302;-37
2022/09/09 09:13:56;;;;;;;2.60;0.87;;;19.40;99.90;;;;;;5117002;28;20150;-40
2022/09/09 09:16:24;;;;;;;4.73;1.20;;;19.50;99.90;;;;;;5104968;27;20279;-37
2022/09/09 09:18:51;;;;;;;3.87;1.10;;;19.70;99.90;;;;;;5116648;28;20170;-39
2022/09/09 09:21:27;;;;;;;5.70;1.00;;;19.80;99.90;;;;;;5114718;28;20200;-37
2022/09/09 09:24:00;;;;;;;2.30;0.90;;;20.10;99.90;;;;;;5115961;28;20174;-37
2022/09/09 09:26:34;;;;;;;5.33;1.30;;;20.20;99.90;;;;;;5116061;28;20696;-38
2022/09/09 09:29:09;;;;;;;2.13;0.57;;;20.40;99.90;;;;;;5114653;28;20630;-40
2022/09/09 09:31:35;;;;;;;3.63;1.20;;;20.50;99.90;;;;;;5116872;28;20189;-37
2022/09/09 09:34:02;;;;;;;2.70;0.90;;;20.60;99.90;;;;;;5116682;28;20678;-38
2022/09/09 09:36:42;;;;;;;2.30;0.87;;;20.70;99.90;;;;;;5116317;28;20194;-38
2022/09/09 09:39:09;;;;;;;2.73;0.97;;;20.80;99.90;;;;;;5115997;28;20162;-37
2022/09/09 09:41:40;;;;;;;3.23;0.70;;;20.90;99.90;;;;;;5115565;28;20167;-37
2022/09/09 09:44:22;;;;;;;2.57;0.77;;;20.90;99.90;;;;;;5115889;27;20174;-39
2022/09/09 09:46:48;;;;;;;4.27;0.80;;;21.10;99.90;;;;;;5116582;28;20184;-37
2022/09/09 09:49:13;;;;;;;4.37;0.97;;;21.20;99.90;;;;;;5115820;28;20178;-38
2022/09/09 09:51:40;;;;;;;2.97;0.90;;;21.10;99.90;;;;;;5115710;28;20181;-39
2022/09/09 09:54:27;;;;;;;2.13;0.90;;;21.00;99.90;;;;;;5115574;28;20175;-39
2022/09/09 09:56:53;;;;;;;3.83;0.80;;;21.00;99.90;;;;;;5115681;28;20277;-39
2022/09/09 09:59:33;;;;;;;3.23;0.90;;;21.10;99.90;;;;;;5114015;28;20213;-38
2022/09/09 10:02:17;;;;;;;2.50;0.87;;;21.10;99.90;;;;;;5113930;28;20170;-40
2022/09/09 10:04:45;;;;;;;3.00;0.77;;;21.40;99.90;;;;;;5115231;27;20556;-38
2022/09/09 10:07:20;;;;;;;2.10;0.70;;;21.50;99.90;;;;;;5115362;28;20170;-39
2022/09/09 10:09:53;;;;;;;2.97;1.10;;;21.50;99.90;;;;;;5115108;28;20245;-37
2022/09/09 10:12:35;;;;;;;4.00;1.00;;;21.50;99.90;;;;;;5115407;28;20207;-40
2022/09/09 10:15:23;;;;;;;1.53;0.70;;;21.60;99.90;;;;;;5114941;28;20285;-38
2022/09/09 10:18:21;;;;;;;3.10;0.87;;;21.60;99.90;;;;;;5115095;28;20190;-37
2022/09/09 10:21:15;;;;;;;2.53;0.93;;;21.50;99.90;;;;;;5102587;27;20217;-40
2022/09/09 10:24:11;;;;;;;2.63;0.80;;;21.40;99.90;;;;;;5114759;28;20151;-40
2022/09/09 10:27:05;;;;;;;3.27;0.87;;;21.20;99.90;;;;;;5114709;28;20201;-38
2022/09/09 10:29:43;;;;;;;2.67;0.90;;;21.00;99.90;;;;;;5114925;28;20193;-39
2022/09/09 10:32:21;;;;;;;2.20;0.70;;;21.00;99.90;;;;;;5114842;28;20162;-39
2022/09/09 10:34:53;;;;;;;2.10;0.67;;;20.90;99.90;;;;;;5114471;28;20190;-40
2022/09/09 10:37:36;;;;;;;2.03;0.87;;;20.90;99.90;;;;;;5114668;28;20198;-40
2022/09/09 10:40:24;;;;;;;2.67;0.67;;;21.00;99.90;;;;;;5114819;28;20238;-40
2022/09/09 10:42:49;;;;;;;3.30;0.90;;;21.00;99.90;;;;;;5110648;28;20186;-40
2022/09/09 10:45:50;;;;;;;1.40;0.70;;;21.10;99.90;;;;;;5114389;28;20246;-40
2022/09/09 10:48:45;;;;;;;3.67;0.90;;;21.10;99.90;;;;;;5114762;27;20295;-39
2022/09/09 10:51:28;;;;;;;2.30;0.80;;;21.10;99.90;;;;;;5114357;28;20523;-41
2022/09/09 10:54:17;;;;;;;1.57;0.60;;;21.10;99.90;;;;;;5113861;28;20603;-40
2022/09/09 10:56:50;;;;;;;2.00;0.70;;;21.00;99.90;;;;;;5114237;28;20204;-40
2022/09/09 10:59:24;;;;;;;6.00;0.93;;;21.10;99.90;;;;;;5114400;28;20178;-40
2022/09/09 11:02:12;;;;;;;3.57;0.87;;;21.10;99.90;;;;;;5114267;28;20248;-40
2022/09/09 11:04:47;;;;;;;2.20;0.70;;;21.10;99.90;;;;;;5114335;28;20182;-39
2022/09/09 11:07:25;;;;;;;3.10;0.97;;;21.20;99.90;;;;;;5114277;28;20190;-37
2022/09/09 11:09:57;;;;;;;2.63;0.60;;;21.10;99.90;;;;;;5114807;28;20211;-37
2022/09/09 11:12:24;;;;;;;3.40;1.20;;;21.20;99.90;;;;;;5114274;28;20170;-39
2022/09/09 11:15:15;;;;;;;1.77;0.70;;;21.20;99.90;;;;;;5113994;28;20194;-39
2022/09/09 11:17:50;;;;;;;1.30;0.80;;;21.20;99.90;;;;;;5112251;28;20212;-39
2022/09/09 11:20:16;;;;;;;2.33;1.03;;;21.20;99.90;;;;;;5114127;28;20504;-36
2022/09/09 11:22:48;;;;;;;1.83;0.70;;;21.20;99.90;;;;;;5113739;28;20181;-39
2022/09/09 11:25:31;;;;;;;2.23;0.90;;;21.20;99.90;;;;;;5113507;28;20208;-39
2022/09/09 11:28:19;;;;;;;4.00;0.70;;;21.20;99.90;;;;;;5114014;28;20170;-38
2022/09/09 11:30:56;;;;;;;3.03;1.03;;;21.30;99.90;;;;;;5112256;28;20715;-41
2022/09/09 11:33:59;;;;;;;2.80;0.60;;;21.30;99.90;;;;;;5113853;28;20196;-40
2022/09/09 11:37:01;;;;;;;1.50;0.80;;;21.40;99.90;;;;;;5113537;28;20240;-39
2022/09/09 11:39:42;;;;;;;1.83;0.90;;;21.50;99.90;;;;;;5113844;28;20680;-42
2022/09/09 11:42:13;;;;;;;2.90;0.70;;;21.60;99.90;;;;;;5113632;28;20233;-40
2022/09/09 11:44:40;;;;;;;4.17;1.13;;;21.50;99.90;;;;;;5113301;28;20190;-40
2022/09/09 11:47:28;;;;;;;4.00;0.90;;;21.60;99.90;;;;;;5112033;28;20556;-40
2022/09/09 11:49:55;;;;;;;1.77;0.70;;;21.80;99.90;;;;;;5113591;28;20177;-40
2022/09/09 11:52:45;;;;;;;5.60;0.77;;;21.90;99.90;;;;;;5113231;28;20170;-40
2022/09/09 11:55:29;;;;;;;1.67;0.70;;;22.00;99.90;;;;;;5113285;28;20218;-41
2022/09/09 11:58:05;;;;;;;4.50;0.80;;;21.90;99.90;;;;;;5113220;28;20671;-40
2022/09/09 12:00:48;;;;;;;3.07;0.90;;;21.90;99.90;;;;;;5113322;28;20624;-40
2022/09/09 12:03:35;;;;;;;1.80;0.90;;;22.10;99.90;;;;;;5113469;28;20174;-37
2022/09/09 12:06:11;;;;;;;1.60;0.70;;;22.10;99.90;;;;;;5115875;28;20684;-40
2022/09/09 12:08:40;;;;;;;2.00;0.80;;;22.10;99.90;;;;;;5117483;28;20579;-37
2022/09/09 12:11:06;;;;;;;2.27;0.80;;;22.00;99.90;;;;;;5117589;28;20182;-39
2022/09/09 12:13:32;;;;;;;0.83;0.53;;;21.90;99.90;;;;;;5118548;28;20397;-40
2022/09/09 12:15:59;;;;;;;2.43;0.80;;;21.90;99.90;;;;;;5119182;28;20229;-41
2022/09/09 12:18:39;;;;;;;5.77;0.83;;;21.80;99.90;;;;;;5118094;28;20170;-40
2022/09/09 12:21:40;;;;;;;1.73;0.70;;;21.60;99.90;;;;;;5117630;28;20685;-40
2022/09/09 12:24:10;;;;;;;1.50;0.67;;;21.50;99.90;;;;;;5117367;28;20638;-41
2022/09/09 12:26:39;;;;;;;1.47;0.80;;;21.30;99.90;;;;;;5117137;28;20239;-40
2022/09/09 12:29:20;;;;;;;2.37;0.50;;;21.20;99.90;;;;;;5117184;27;20228;-42
2022/09/09 12:31:56;;;;;;;8.73;0.80;;;21.00;99.90;;;;;;5117060;28;20219;-39
2022/09/09 12:34:43;;;;;;;3.00;0.90;;;21.00;99.90;;;;;;5117062;28;20237;-41
2022/09/09 12:37:23;;;;;;;2.47;0.83;;;20.90;99.90;;;;;;5115314;28;20351;-40
2022/09/09 12:39:58;;;;;;;1.77;0.63;;;21.00;99.90;;;;;;5115442;28;20740;-41
2022/09/09 12:42:25;;;;;;;1.57;0.63;;;21.00;99.90;;;;;;5116808;28;20171;-41
2022/09/09 12:44:52;;;;;;;5.70;0.60;;;21.10;99.90;;;;;;5116520;28;20192;-39
2022/09/09 12:47:22;;;;;;;2.67;1.03;;;21.10;99.90;;;;;;5116553;28;20174;-40
2022/09/09 12:49:49;;;;;;;5.00;1.00;;;21.20;99.90;;;;;;5116466;28;20177;-40
2022/09/09 12:52:19;;;;;;;0.90;0.70;;;21.20;99.90;;;;;;5116757;28;20257;-40
2022/09/09 12:54:51;;;;;;;1.07;0.70;;;21.20;99.90;;;;;;5116337;28;20194;-40
2022/09/09 12:57:17;;;;;;;1.70;0.63;;;21.10;99.90;;;;;;5116257;28;20202;-37
2022/09/09 12:59:47;;;;;;;1.43;0.97;;;21.20;99.90;;;;;;5115026;28;20178;-39
2022/09/09 13:02:27;;;;;;;2.53;1.20;;;21.40;99.90;;;;;;5116309;28;20158;-41
2022/09/09 13:04:54;;;;;;;5.17;1.17;;;21.50;99.90;;;;;;5116327;28;20194;-39
2022/09/09 13:07:21;;;;;;;1.80;0.67;;;21.50;99.90;;;;;;5116411;28;20178;-41
2022/09/09 13:09:48;;;;;;;3.50;1.20;;;21.40;99.90;;;;;;5116158;28;20178;-40
2022/09/09 13:12:25;;;;;;;3.07;0.83;;;21.30;99.90;;;;;;5116255;28;20185;-39
2022/09/09 13:14:56;;;;;;;8.07;1.30;;;21.30;99.90;;;;;;5116241;28;20666;-40
2022/09/09 13:17:24;;;;;;;1.70;0.77;;;21.00;99.90;;;;;;5115217;28;20292;-41